Time;durP1;ratioP1;P1;durP2;ratioP2;P2;SDS_P1;SDS_P2;PMS_P1;PMS_P2;Temp;Humidity;BMP_temperature;BMP_pressure;BME280_temperature;BME280_humidity;BME280_pressure;Samples;Min_cycle;Max_cycle;Signal;HPM_P1;HPM_P2
2023/01/11 00:00:06;;;;;;;;;;;;;;;6.06;93.39;99031.75;319749;30;4801;-75
2023/01/11 00:00:16;;;;;;;;;;;;;;;6.07;93.53;99032.56;323199;30;1495;-75
2023/01/11 00:00:26;;;;;;;;;;;;;;;6.06;93.97;99031.75;321345;30;4317;-75
2023/01/11 00:00:37;;;;;;;;;;;;;;;6.07;93.91;99032.56;320190;30;4552;-75
2023/01/11 00:00:48;;;;;;;;;;;;;;;6.06;93.58;99029.16;320930;30;1512;-75
2023/01/11 00:00:58;;;;;;;;;;;;;;;6.05;93.59;99035.25;320065;30;3400;-76
2023/01/11 00:01:08;;;;;;;;;;;;;;;6.05;93.52;99018.81;319578;30;2708;-75
2023/01/11 00:01:19;;;;;;;;;;;;;;;6.05;93.37;99030.03;317795;31;1450;-75
2023/01/11 00:01:31;;;;;;;;;;;;;;;6.05;93.75;99032.63;315399;31;4059;-75
2023/01/11 00:01:41;;;;;;;;;;;;;;;6.06;93.27;99025.69;316048;31;4537;-75
2023/01/11 00:01:51;;;;;;;;;;;;;;;6.05;93.81;99035.25;313242;31;5699;-75
2023/01/11 00:02:01;;;;;;;;;;;;;;;6.06;93.68;99036.09;310566;31;1529;-75
2023/01/11 00:02:12;;;;;;;;;;;;;;;6.04;93.73;99033.53;310583;31;6484;-75
2023/01/11 00:02:22;;;;;;;;;;;;;;;6.05;93.26;99031.78;310185;31;7009;-75
2023/01/11 00:02:33;;;;;;;;;;;;;;;6.06;93.67;99030.91;312900;31;1538;-75
2023/01/11 00:02:44;;;;;;;;;;;;;;;6.05;93.77;99030.03;310542;31;6342;-75
2023/01/11 00:02:58;;;;;;;;;;;;;;;6.06;93.53;99033.50;307970;31;6526;-75
2023/01/11 00:03:08;;;;;;;;;;;;;;;6.06;93.77;99030.91;305096;32;4703;-75
2023/01/11 00:03:19;;;;;;;;;;;;;;;6.06;93.87;99029.16;304716;32;1268;-75
2023/01/11 00:03:29;;;;;;;;;;;;;;;6.05;93.34;99027.44;299461;32;4211;-76
2023/01/11 00:03:39;;;;;;;;;;;;;;;6.07;93.61;99032.56;295894;33;6263;-75
2023/01/11 00:03:49;;;;;;;;;;;;;;;6.06;93.73;99031.75;295600;32;7092;-75
2023/01/11 00:04:00;;;;;;;;;;;;;;;6.06;93.80;99026.56;298530;33;2352;-75
2023/01/11 00:04:10;;;;;;;;;;;;;;;6.06;93.33;99026.56;296531;33;8580;-77
2023/01/11 00:04:22;;;;;;;;;;;;;;;6.06;93.43;99031.75;294428;33;9640;-76
2023/01/11 00:04:32;;;;;;;;;;;;;;;6.06;93.44;99030.91;295878;33;1456;-75
2023/01/11 00:04:42;;;;;;;;;;;;;;;6.06;93.26;99031.75;292490;33;9167;-75
2023/01/11 00:04:52;;;;;;;;;;;;;;;6.06;93.24;99034.34;290230;33;8899;-75
2023/01/11 00:07:26;;;;;;;;;;;;;;;6.09;93.45;99036.81;2491960;27;19938;-74
2023/01/11 00:07:37;;;;;;;;;;;;;;;6.07;93.37;99033.41;354456;27;1448;-74
2023/01/11 00:07:48;;;;;;;;;;;;;;;6.08;94.06;99040.31;353015;28;1444;-75
2023/01/11 00:07:58;;;;;;;;;;;;;;;6.07;93.54;99038.59;353151;28;859;-74
2023/01/11 00:08:08;;;;;;;;;;;;;;;6.08;94.04;99034.25;352500;28;1263;-74
2023/01/11 00:08:20;;;;;;;;;;;;;;;6.07;93.48;99041.19;351546;28;1484;-75
2023/01/11 00:08:31;;;;;;;;;;;;;;;6.08;93.65;99036.84;351754;28;1393;-75
2023/01/11 00:08:42;;;;;;;;;;;;;;;6.06;93.30;99036.94;350181;28;1551;-74
2023/01/11 00:08:54;;;;;;;;;;;;;;;6.06;93.73;99034.34;351474;28;1437;-75
2023/01/11 00:09:05;;;;;;;;;;;;;;;6.06;93.68;99038.69;350057;28;1449;-75
2023/01/11 00:09:15;;;;;;;;;;;;;;;6.08;93.25;99039.44;350213;28;1422;-74
2023/01/11 00:09:26;;;;;;;;;;;;;;;6.08;93.74;99039.44;353070;28;1290;-75
2023/01/11 00:09:36;;;;;;;;;;;;;;;6.08;93.62;99036.84;353747;27;1417;-75
2023/01/11 00:09:46;;;;;;;;;;;;;;;6.07;93.82;99038.59;352593;28;1511;-75
2023/01/11 00:09:56;;;;;;;;;;;;;;;6.09;93.51;99042.00;351776;28;1595;-74
2023/01/11 00:10:07;;;;;;;;;;;;;;;6.10;93.62;99037.66;351653;28;1525;-74
2023/01/11 00:10:18;;;;;;;;;;;;;;;6.09;93.39;99038.56;351267;28;1437;-74
2023/01/11 00:10:29;;;;;;;;;;;;;;;6.09;92.95;99038.56;352136;28;930;-74
2023/01/11 00:10:39;;;;;;;;;;;;;;;6.09;93.04;99042.00;350455;28;1581;-74
2023/01/11 00:10:50;;;;;;;;;;;;;;;6.09;93.36;99042.00;348890;28;1458;-74
2023/01/11 00:11:01;;;;;;;;;;;;;;;6.10;93.18;99043.69;347836;28;1466;-75
2023/01/11 00:11:11;;;;;;;;;;;;;;;6.09;93.31;99036.81;345073;28;1313;-75
2023/01/11 00:11:22;;;;;;;;;;;;;;;6.09;93.22;99035.97;344664;28;1468;-74
2023/01/11 00:11:32;;;;;;;;;;;;;;;6.09;92.69;99036.81;342322;28;1512;-74
2023/01/11 00:11:43;;;;;;;;;;;;;;;6.10;92.30;99032.47;345004;28;1519;-75
2023/01/11 00:11:54;;;;;;;;;;;;;;;6.11;92.34;99040.22;343581;28;1579;-75
2023/01/11 00:12:04;;;;;;;;;;;;;;;6.12;92.67;99047.09;343079;28;1480;-75
2023/01/11 00:12:14;;;;;;;;;;;;;;;6.13;92.15;99037.56;342508;28;1193;-75
2023/01/11 00:12:24;;;;;;;;;;;;;;;6.13;92.19;99037.56;343200;28;1475;-74
2023/01/11 00:12:35;;;;;;;;;;;;;;;6.13;92.88;99043.59;344863;28;1498;-74
2023/01/11 00:12:45;;;;;;;;;;;;;;;6.12;92.96;99041.06;345052;28;1341;-75
2023/01/11 00:12:55;;;;;;;;;;;;;;;6.12;92.98;99041.06;344704;28;1381;-74
2023/01/11 00:13:05;;;;;;;;;;;;;;;6.11;92.82;99040.22;346957;28;1548;-74
2023/01/11 00:13:16;;;;;;;;;;;;;;;6.12;92.55;99041.91;347729;28;1442;-75
2023/01/11 00:13:26;;;;;;;;;;;;;;;6.12;92.61;99034.13;345994;28;1414;-75
2023/01/11 00:13:36;;;;;;;;;;;;;;;6.12;92.81;99041.91;348709;28;1434;-75
2023/01/11 00:13:47;;;;;;;;;;;;;;;6.13;92.58;99040.16;345957;28;1433;-75
2023/01/11 00:13:57;;;;;;;;;;;;;;;6.12;92.88;99041.91;343673;28;1245;-75
2023/01/11 00:14:07;;;;;;;;;;;;;;;6.13;92.70;99035.81;345403;28;1488;-75
2023/01/11 00:14:17;;;;;;;;;;;;;;;6.12;92.87;99028.91;347559;28;1753;-75
2023/01/11 00:14:27;;;;;;;;;;;;;;;6.12;92.39;99041.06;346107;28;1439;-75
2023/01/11 00:14:38;;;;;;;;;;;;;;;6.11;92.70;99037.63;346287;28;1450;-75
2023/01/11 00:14:48;;;;;;;;;;;;;;;6.11;92.10;99035.00;344562;28;1381;-75
2023/01/11 00:14:58;;;;;;;;;;;;;;;6.12;92.59;99044.50;345021;28;1606;-75
2023/01/11 00:15:09;;;;;;;;;;;;;;;6.11;92.46;99040.22;345800;28;1451;-75
2023/01/11 00:15:19;;;;;;;;;;;;;;;6.12;92.71;99046.25;347562;28;1487;-75
2023/01/11 00:15:29;;;;;;;;;;;;;;;6.11;92.42;99042.81;346435;28;1235;-75
2023/01/11 00:15:40;;;;;;;;;;;;;;;6.13;92.95;99040.16;344699;28;1482;-76
2023/01/11 00:15:50;;;;;;;;;;;;;;;6.12;93.20;99046.25;345865;28;1427;-75
2023/01/11 00:16:06;;;;;;;;;;;;;;;6.11;93.31;99042.81;347724;28;1632;-75
2023/01/11 00:16:16;;;;;;;;;;;;;;;6.11;92.93;99042.81;341115;28;1977;-75
2023/01/11 00:16:27;;;;;;;;;;;;;;;6.12;93.51;99041.06;341929;28;1504;-75
2023/01/11 00:16:37;;;;;;;;;;;;;;;6.11;93.56;99037.63;342327;28;1458;-75
2023/01/11 00:16:48;;;;;;;;;;;;;;;6.10;93.55;99038.50;343611;28;1443;-75
2023/01/11 00:16:59;;;;;;;;;;;;;;;6.10;93.31;99038.50;342243;28;1578;-75
2023/01/11 00:17:09;;;;;;;;;;;;;;;6.09;93.64;99042.00;344795;28;1499;-75
2023/01/11 00:17:19;;;;;;;;;;;;;;;6.10;93.47;99037.66;339539;29;1441;-75
2023/01/11 00:17:29;;;;;;;;;;;;;;;6.09;93.41;99041.16;332908;29;1291;-75
2023/01/11 00:17:40;;;;;;;;;;;;;;;6.08;93.98;99035.09;335006;29;1828;-75
2023/01/11 00:17:50;;;;;;;;;;;;;;;6.09;94.00;99042.00;334056;29;2065;-75
2023/01/11 00:18:01;;;;;;;;;;;;;;;6.10;94.29;99043.69;334116;29;1444;-74
2023/01/11 00:18:12;;;;;;;;;;;;;;;6.10;93.93;99038.50;333312;29;1468;-74
2023/01/11 00:18:22;;;;;;;;;;;;;;;6.10;93.76;99046.31;331824;29;2006;-74
2023/01/11 00:18:32;;;;;;;;;;;;;;;6.09;94.30;99042.00;330506;29;1646;-74
2023/01/11 00:18:43;;;;;;;;;;;;;;;6.10;94.07;99040.25;332043;29;1587;-75
2023/01/11 00:18:53;;;;;;;;;;;;;;;6.09;94.28;99042.00;332728;29;1459;-75
2023/01/11 00:19:03;;;;;;;;;;;;;;;6.08;94.02;99042.91;331714;29;1377;-74
2023/01/11 00:19:14;;;;;;;;;;;;;;;6.08;94.47;99042.91;331890;29;1469;-74
2023/01/11 00:19:24;;;;;;;;;;;;;;;6.08;94.11;99049.84;327090;29;1798;-75
2023/01/11 00:19:34;;;;;;;;;;;;;;;6.09;94.39;99043.75;328398;29;2149;-75
2023/01/11 00:19:44;;;;;;;;;;;;;;;6.08;93.79;99045.50;328194;30;1302;-75
2023/01/11 00:19:54;;;;;;;;;;;;;;;6.09;93.92;99041.16;328635;30;2600;-75
2023/01/11 00:20:05;;;;;;;;;;;;;;;6.09;93.86;99041.16;327889;29;2493;-75
2023/01/11 00:20:16;;;;;;;;;;;;;;;6.10;93.94;99042.84;326314;30;2515;-74
2023/01/11 00:20:26;;;;;;;;;;;;;;;6.10;94.37;99045.44;327240;30;1280;-74
2023/01/11 00:20:39;;;;;;;;;;;;;;;6.11;94.45;99044.56;325836;30;2414;-75
2023/01/11 00:20:50;;;;;;;;;;;;;;;6.11;93.95;99049.75;327598;30;1713;-75
2023/01/11 00:21:04;;;;;;;;;;;;;;;6.11;93.72;99042.81;328099;30;958;-75
2023/01/11 00:21:14;;;;;;;;;;;;;;;6.10;93.95;99048.91;323004;30;1471;-75
2023/01/11 00:21:25;;;;;;;;;;;;;;;6.11;94.03;99049.75;325073;30;2032;-74
2023/01/11 00:21:35;;;;;;;;;;;;;;;6.10;94.21;99048.91;325093;30;2773;-74
2023/01/11 00:21:47;;;;;;;;;;;;;;;6.10;94.25;99046.31;322594;30;2805;-74
2023/01/11 00:21:57;;;;;;;;;;;;;;;6.11;93.96;99044.56;320839;30;1389;-74
2023/01/11 00:22:08;;;;;;;;;;;;;;;6.10;93.75;99042.84;318132;30;3313;-75
2023/01/11 00:22:19;;;;;;;;;;;;;;;6.11;94.09;99045.41;316890;30;3409;-75
2023/01/11 00:22:29;;;;;;;;;;;;;;;6.12;93.83;99047.09;319617;30;1163;-74
2023/01/11 00:22:39;;;;;;;;;;;;;;;6.12;94.15;99046.25;313488;31;2876;-74
2023/01/11 00:22:50;;;;;;;;;;;;;;;6.12;94.08;99048.84;311697;31;2772;-74
2023/01/11 00:23:00;;;;;;;;;;;;;;;6.11;94.39;99045.41;311616;31;1560;-74
2023/01/11 00:23:10;;;;;;;;;;;;;;;6.11;94.33;99041.97;310517;31;1441;-74
2023/01/11 00:23:21;;;;;;;;;;;;;;;6.12;93.86;99043.66;312923;31;2385;-74
2023/01/11 00:23:31;;;;;;;;;;;;;;;6.11;94.03;99050.59;313037;31;2831;-74
2023/01/11 00:23:42;;;;;;;;;;;;;;;6.11;93.67;99048.00;308113;31;1439;-74
2023/01/11 00:23:52;;;;;;;;;;;;;;;6.10;93.60;99048.91;307303;32;3594;-74
2023/01/11 00:24:02;;;;;;;;;;;;;;;6.10;93.91;99048.06;306844;31;3961;-74
2023/01/11 00:24:12;;;;;;;;;;;;;;;6.09;93.48;99052.41;309584;31;1501;-74
2023/01/11 00:24:23;;;;;;;;;;;;;;;6.10;93.48;99053.25;309313;31;4447;-74
2023/01/11 00:24:33;;;;;;;;;;;;;;;6.11;93.51;99055.78;306801;32;4864;-74
2023/01/11 00:24:43;;;;;;;;;;;;;;;6.10;93.83;99056.69;303102;32;1609;-74
2023/01/11 00:24:53;;;;;;;;;;;;;;;6.10;93.21;99058.44;302839;32;3934;-74
2023/01/11 00:25:04;;;;;;;;;;;;;;;6.09;93.41;99057.59;303947;32;4069;-75
2023/01/11 00:25:14;;;;;;;;;;;;;;;6.09;93.74;99052.41;303335;32;1619;-75
2023/01/11 00:25:24;;;;;;;;;;;;;;;6.10;93.37;99054.09;303145;32;3574;-74
2023/01/11 00:25:34;;;;;;;;;;;;;;;6.10;93.86;99051.50;302927;32;3509;-74
2023/01/11 00:25:45;;;;;;;;;;;;;;;6.10;93.93;99059.28;301967;32;1539;-74
2023/01/11 00:25:55;;;;;;;;;;;;;;;6.10;93.96;99059.28;297929;32;3737;-74
2023/01/11 00:26:05;;;;;;;;;;;;;;;6.11;93.75;99054.94;298024;32;5620;-74
2023/01/11 00:26:16;;;;;;;;;;;;;;;6.10;93.40;99059.28;296701;33;6622;-74
2023/01/11 00:26:26;;;;;;;;;;;;;;;6.10;93.95;99061.03;293817;33;1583;-74
2023/01/11 00:26:36;;;;;;;;;;;;;;;6.10;93.62;99058.44;292702;33;6250;-74
2023/01/11 00:26:46;;;;;;;;;;;;;;;6.10;93.86;99059.28;291112;33;6613;-74
2023/01/11 00:26:56;;;;;;;;;;;;;;;6.09;93.74;99062.78;292131;33;1623;-74
2023/01/11 00:27:07;;;;;;;;;;;;;;;6.09;93.13;99055.00;290769;33;5331;-74
2023/01/11 00:27:17;;;;;;;;;;;;;;;6.09;93.59;99062.78;289716;33;4977;-74
2023/01/11 00:27:27;;;;;;;;;;;;;;;6.09;93.51;99057.59;287114;34;1460;-74
2023/01/11 00:27:37;;;;;;;;;;;;;;;6.11;93.18;99060.13;286088;34;4900;-74
2023/01/11 00:27:48;;;;;;;;;;;;;;;6.10;93.45;99061.88;286377;34;4856;-74
2023/01/11 00:27:58;;;;;;;;;;;;;;;6.10;93.12;99064.47;287083;34;1547;-75
2023/01/11 00:28:09;;;;;;;;;;;;;;;6.11;93.03;99060.13;285524;34;6305;-75
2023/01/11 00:28:19;;;;;;;;;;;;;;;6.11;92.89;99065.34;283278;34;8158;-75
2023/01/11 00:28:29;;;;;;;;;;;;;;;6.10;93.13;99059.28;282049;35;1549;-75
2023/01/11 00:28:39;;;;;;;;;;;;;;;6.09;93.65;99060.19;283549;34;10086;-75
2023/01/11 00:28:50;;;;;;;;;;;;;;;6.11;93.79;99062.75;282688;34;8528;-75
2023/01/11 00:29:00;;;;;;;;;;;;;;;6.10;93.43;99064.47;281580;35;1641;-75
2023/01/11 00:29:10;;;;;;;;;;;;;;;6.11;93.62;99063.59;281922;34;9303;-75
2023/01/11 00:30:58;;;;;;;;;;;;;;;6.10;93.97;99069.69;2493227;27;19933;-75
2023/01/11 00:31:08;;;;;;;;;;;;;;;6.10;93.99;99064.47;355841;27;2337;-74
2023/01/11 00:31:18;;;;;;;;;;;;;;;6.09;93.95;99062.78;354794;27;1429;-75
2023/01/11 00:31:29;;;;;;;;;;;;;;;6.09;93.29;99062.78;353488;28;1489;-75
2023/01/11 00:31:39;;;;;;;;;;;;;;;6.09;93.71;99054.13;351739;28;1453;-75
2023/01/11 00:31:49;;;;;;;;;;;;;;;6.10;93.91;99064.47;351777;28;1286;-75
2023/01/11 00:31:59;;;;;;;;;;;;;;;6.09;93.45;99057.59;350326;28;1410;-75
2023/01/11 00:32:10;;;;;;;;;;;;;;;6.09;93.83;99062.78;350446;28;1497;-75
2023/01/11 00:32:20;;;;;;;;;;;;;;;6.08;93.71;99066.28;350489;28;1413;-75
2023/01/11 00:32:30;;;;;;;;;;;;;;;6.08;93.51;99063.69;352042;28;1421;-75
2023/01/11 00:32:40;;;;;;;;;;;;;;;6.08;93.36;99066.28;351836;28;1488;-75
2023/01/11 00:32:54;;;;;;;;;;;;;;;6.07;93.86;99059.38;350666;28;1426;-75
2023/01/11 00:33:04;;;;;;;;;;;;;;;6.08;93.26;99065.44;352006;28;1390;-75
2023/01/11 00:33:14;;;;;;;;;;;;;;;6.08;93.38;99060.22;353364;28;1503;-75
2023/01/11 00:33:25;;;;;;;;;;;;;;;6.08;93.28;99063.69;352828;28;1453;-75
2023/01/11 00:33:35;;;;;;;;;;;;;;;6.08;93.38;99060.22;350573;28;1474;-75
2023/01/11 00:33:45;;;;;;;;;;;;;;;6.07;93.55;99058.53;350532;28;1591;-75
2023/01/11 00:33:55;;;;;;;;;;;;;;;6.06;93.20;99065.50;350080;28;1527;-75
2023/01/11 00:34:07;;;;;;;;;;;;;;;6.07;93.10;99067.19;350623;28;1422;-75
2023/01/11 00:34:18;;;;;;;;;;;;;;;6.07;92.98;99067.19;347777;28;1490;-75
2023/01/11 00:34:28;;;;;;;;;;;;;;;6.07;93.07;99061.97;347184;28;1444;-74
2023/01/11 00:34:38;;;;;;;;;;;;;;;6.08;92.86;99061.09;347601;28;1403;-74
2023/01/11 00:34:49;;;;;;;;;;;;;;;6.07;93.49;99064.56;347640;28;1482;-74
2023/01/11 00:34:59;;;;;;;;;;;;;;;6.07;93.22;99059.38;347599;28;1455;-74
2023/01/11 00:35:09;;;;;;;;;;;;;;;6.07;93.05;99059.38;347552;28;1463;-74
2023/01/11 00:35:20;;;;;;;;;;;;;;;6.08;93.33;99065.44;345537;28;1502;-74
2023/01/11 00:35:31;;;;;;;;;;;;;;;6.07;92.87;99064.56;347728;28;1438;-74
2023/01/11 00:35:41;;;;;;;;;;;;;;;6.08;93.19;99065.44;347649;28;1391;-74
2023/01/11 00:35:51;;;;;;;;;;;;;;;6.09;92.72;99056.75;347791;28;1435;-75
2023/01/11 00:36:02;;;;;;;;;;;;;;;6.08;92.83;99066.28;347362;28;1498;-75
2023/01/11 00:36:12;;;;;;;;;;;;;;;6.10;92.62;99069.69;349045;28;1454;-75
2023/01/11 00:36:22;;;;;;;;;;;;;;;6.10;92.63;99066.22;346915;28;1423;-75
2023/01/11 00:36:33;;;;;;;;;;;;;;;6.10;92.88;99063.63;347972;28;947;-75
2023/01/11 00:36:43;;;;;;;;;;;;;;;6.11;92.70;99068.78;348954;28;1552;-75
2023/01/11 00:36:54;;;;;;;;;;;;;;;6.12;92.95;99067.03;350745;28;1433;-75
2023/01/11 00:37:04;;;;;;;;;;;;;;;6.11;92.55;99071.38;348685;28;1403;-75
2023/01/11 00:37:14;;;;;;;;;;;;;;;6.12;92.79;99072.22;349160;28;1581;-74
2023/01/11 00:37:24;;;;;;;;;;;;;;;6.12;92.72;99067.03;348818;28;1425;-75
2023/01/11 00:37:35;;;;;;;;;;;;;;;6.11;93.06;99066.19;348691;28;1558;-75
2023/01/11 00:37:45;;;;;;;;;;;;;;;6.11;92.77;99071.38;347792;28;1573;-75
2023/01/11 00:37:55;;;;;;;;;;;;;;;6.11;92.75;99068.78;347053;28;1493;-75
2023/01/11 00:38:05;;;;;;;;;;;;;;;6.11;92.23;99070.53;347153;28;1482;-75
2023/01/11 00:38:42;;;;;;;;;;;;;;;6.12;92.64;99067.03;348850;28;1565;-75
2023/01/11 00:38:50;;;;;;;;;;;;;;;6.12;92.41;99077.44;346210;28;1435;-75
2023/01/11 00:39:00;;;;;;;;;;;;;;;6.12;92.40;99067.88;341995;28;1397;-75
2023/01/11 00:39:10;;;;;;;;;;;;;;;6.12;92.38;99067.88;338304;29;1457;-75
2023/01/11 00:39:20;;;;;;;;;;;;;;;6.12;92.35;99067.88;339545;28;1476;-75
2023/01/11 00:39:31;;;;;;;;;;;;;;;6.12;92.29;99067.03;340858;28;1462;-75
2023/01/11 00:39:41;;;;;;;;;;;;;;;6.13;92.10;99063.53;341733;28;1544;-75
2023/01/11 00:39:51;;;;;;;;;;;;;;;6.13;92.21;99068.72;341232;28;2008;-75
2023/01/11 00:40:01;;;;;;;;;;;;;;;6.12;92.33;99070.47;342063;28;1394;-75
2023/01/11 00:40:12;;;;;;;;;;;;;;;6.12;91.85;99067.88;340864;29;1500;-75
2023/01/11 00:40:23;;;;;;;;;;;;;;;6.12;92.36;99065.28;340011;29;1374;-75
2023/01/11 00:40:33;;;;;;;;;;;;;;;6.12;92.43;99067.88;339342;29;1274;-75
2023/01/11 00:40:43;;;;;;;;;;;;;;;6.12;92.39;99060.09;338056;29;1552;-75
2023/01/11 00:40:53;;;;;;;;;;;;;;;6.12;92.17;99064.44;338624;29;1552;-74
2023/01/11 00:47:56;;;;;;;;;;;;;;;6.12;92.93;99073.09;305450;31;4719;-75
2023/01/11 00:48:06;;;;;;;;;;;;;;;6.12;92.31;99075.69;306745;31;4834;-75
2023/01/11 00:48:16;;;;;;;;;;;;;;;6.13;92.58;99072.19;306940;32;2389;-75
2023/01/11 00:48:26;;;;;;;;;;;;;;;6.13;92.84;99066.97;309285;31;4788;-75
2023/01/11 00:48:37;;;;;;;;;;;;;;;6.13;92.40;99069.59;308750;31;4923;-75
2023/01/11 00:48:47;;;;;;;;;;;;;;;6.13;92.75;99064.38;306435;32;2839;-75
2023/01/11 00:48:57;;;;;;;;;;;;;;;6.12;92.27;99074.81;301003;32;1437;-75
2023/01/11 00:49:07;;;;;;;;;;;;;;;6.12;92.26;99070.47;301834;32;3299;-75
2023/01/11 00:49:18;;;;;;;;;;;;;;;6.12;92.25;99073.09;301117;32;4307;-75
2023/01/11 00:49:28;;;;;;;;;;;;;;;6.14;91.69;99073.03;299246;32;1382;-75
2023/01/11 00:49:38;;;;;;;;;;;;;;;6.14;92.17;99066.09;300695;32;4790;-75
2023/01/11 00:49:48;;;;;;;;;;;;;;;6.15;91.75;99067.78;301135;32;5463;-75
2023/01/11 00:49:59;;;;;;;;;;;;;;;6.15;92.16;99072.97;301963;32;1440;-75
2023/01/11 00:50:09;;;;;;;;;;;;;;;6.15;91.56;99070.38;298010;33;6253;-75
2023/01/11 00:50:19;;;;;;;;;;;;;;;6.15;91.61;99072.97;297613;32;6047;-75
2023/01/11 00:50:30;;;;;;;;;;;;;;;6.15;91.97;99072.13;299125;32;1500;-75
2023/01/11 00:50:40;;;;;;;;;;;;;;;6.15;92.20;99067.78;295478;33;6805;-75
2023/01/11 00:50:51;;;;;;;;;;;;;;;6.15;91.76;99066.94;296515;32;6702;-75
2023/01/11 00:51:02;;;;;;;;;;;;;;;6.15;91.95;99072.97;297893;33;1427;-75
2023/01/11 00:51:12;;;;;;;;;;;;;;;6.17;91.82;99066.00;295004;33;5006;-75
2023/01/11 00:51:22;;;;;;;;;;;;;;;6.16;92.27;99069.50;293351;33;4877;-75
2023/01/11 00:51:32;;;;;;;;;;;;;;;6.17;92.08;99071.19;293764;33;6704;-75
2023/01/11 00:51:42;;;;;;;;;;;;;;;6.17;91.86;99066.00;292091;33;1505;-76
2023/01/11 00:51:53;;;;;;;;;;;;;;;6.17;91.97;99071.19;290354;33;7285;-75
2023/01/11 00:52:07;;;;;;;;;;;;;;;6.17;92.21;99075.53;290838;33;7462;-75
2023/01/11 00:52:17;;;;;;;;;;;;;;;6.16;91.58;99066.88;291778;33;8441;-75
2023/01/11 00:52:27;;;;;;;;;;;;;;;6.15;92.09;99072.13;291766;33;1453;-75
2023/01/11 00:52:38;;;;;;;;;;;;;;;6.14;92.04;99066.09;287058;34;8855;-74
2023/01/11 00:52:48;;;;;;;;;;;;;;;6.14;91.95;99067.84;283084;34;8476;-74
2023/01/11 00:52:58;;;;;;;;;;;;;;;6.14;91.66;99071.28;286470;34;1475;-74
2023/01/11 00:53:09;;;;;;;;;;;;;;;6.14;91.95;99063.50;283872;34;9302;-74
2023/01/11 00:53:19;;;;;;;;;;;;;;;6.14;91.80;99071.28;284559;34;7255;-75
2023/01/11 00:53:30;;;;;;;;;;;;;;;6.14;91.63;99066.09;286718;34;1515;-74
2023/01/11 00:55:24;;;;;;;;;;;;;;;6.17;91.76;99073.78;2494560;27;19923;-75
2023/01/11 00:55:35;;;;;;;;;;;;;;;6.17;92.04;99072.94;354754;27;1654;-75
2023/01/11 00:55:45;;;;;;;;;;;;;;;6.17;92.10;99068.59;353258;28;1571;-75
2023/01/11 00:55:55;;;;;;;;;;;;;;;6.17;91.65;99067.75;351704;28;1520;-75
2023/01/11 00:56:06;;;;;;;;;;;;;;;6.17;92.13;99071.19;350599;28;1577;-75
2023/01/11 00:56:16;;;;;;;;;;;;;;;6.16;92.04;99072.09;348786;28;1161;-75
2023/01/11 00:56:26;;;;;;;;;;;;;;;6.16;92.16;99073.84;349023;28;1466;-74
2023/01/11 00:56:37;;;;;;;;;;;;;;;6.15;91.81;99072.97;350351;28;1756;-74
2023/01/11 00:56:47;;;;;;;;;;;;;;;6.17;91.47;99071.19;351832;28;1379;-74
2023/01/11 00:56:57;;;;;;;;;;;;;;;6.16;91.67;99074.69;350410;28;1253;-74
2023/01/11 00:57:07;;;;;;;;;;;;;;;6.17;92.02;99076.38;350879;28;867;-74
2023/01/11 00:57:18;;;;;;;;;;;;;;;6.18;92.00;99067.69;352142;28;1440;-74
2023/01/11 00:57:28;;;;;;;;;;;;;;;6.18;92.08;99072.88;353301;28;1421;-74
2023/01/11 00:57:38;;;;;;;;;;;;;;;6.19;91.71;99073.75;353277;28;1440;-75
2023/01/11 00:57:48;;;;;;;;;;;;;;;6.19;91.90;99071.13;353296;28;1465;-75
2023/01/11 00:57:59;;;;;;;;;;;;;;;6.18;91.73;99072.88;351738;28;1584;-75
2023/01/11 00:58:09;;;;;;;;;;;;;;;6.19;91.58;99078.94;350492;28;1482;-74
2023/01/11 00:58:19;;;;;;;;;;;;;;;6.18;91.42;99070.28;350173;28;1441;-75
2023/01/11 00:58:30;;;;;;;;;;;;;;;6.18;91.79;99072.88;353171;28;1845;-76
2023/01/11 00:58:40;;;;;;;;;;;;;;;6.19;91.36;99077.19;353391;28;1677;-76
2023/01/11 00:58:50;;;;;;;;;;;;;;;6.19;91.45;99072.00;353311;28;1407;-76
2023/01/11 00:59:01;;;;;;;;;;;;;;;6.19;91.36;99071.13;348953;28;1498;-76
2023/01/11 00:59:11;;;;;;;;;;;;;;;6.19;91.68;99072.00;346040;28;1477;-76
2023/01/11 00:59:21;;;;;;;;;;;;;;;6.19;91.76;99079.78;348652;28;1319;-76
2023/01/11 00:59:34;;;;;;;;;;;;;;;6.18;91.51;99072.88;347636;28;1578;-76
2023/01/11 00:59:44;;;;;;;;;;;;;;;6.17;91.27;99073.78;346372;28;1509;-73
2023/01/11 00:59:55;;;;;;;;;;;;;;;6.17;91.17;99073.78;347700;28;1736;-73
2023/01/11 01:00:05;;;;;;;;;;;;;;;6.17;91.31;99068.59;348753;28;1588;-74
2023/01/11 01:00:16;;;;;;;;;;;;;;;6.17;91.52;99076.38;347363;28;1567;-75
2023/01/11 01:00:26;;;;;;;;;;;;;;;6.18;91.65;99069.44;346273;28;1422;-75
2023/01/11 01:00:37;;;;;;;;;;;;;;;6.18;91.09;99078.09;346282;28;1561;-73
2023/01/11 01:00:47;;;;;;;;;;;;;;;6.18;91.33;99075.50;346326;28;1526;-74
2023/01/11 01:00:57;;;;;;;;;;;;;;;6.18;90.87;99072.88;347603;28;1450;-74
2023/01/11 01:01:07;;;;;;;;;;;;;;;6.19;91.49;99076.34;348619;28;1589;-74
2023/01/11 01:01:18;;;;;;;;;;;;;;;6.19;91.49;99079.78;348650;28;1453;-75
2023/01/11 01:01:28;;;;;;;;;;;;;;;6.20;90.98;99078.88;347712;28;1434;-74
2023/01/11 01:01:38;;;;;;;;;;;;;;;6.20;91.07;99080.63;342419;28;1437;-74
2023/01/11 01:01:48;;;;;;;;;;;;;;;6.19;91.03;99079.78;343553;28;1441;-74
2023/01/11 01:01:58;;;;;;;;;;;;;;;6.20;91.01;99081.47;343394;28;1445;-74
2023/01/11 01:02:09;;;;;;;;;;;;;;;6.21;91.10;99079.75;343318;28;1480;-74
2023/01/11 01:02:19;;;;;;;;;;;;;;;6.20;91.42;99081.47;343631;28;1433;-74
2023/01/11 01:02:30;;;;;;;;;;;;;;;6.20;91.14;99083.22;342101;28;1583;-74
2023/01/11 01:02:40;;;;;;;;;;;;;;;6.20;91.65;99081.47;343719;28;1440;-74
2023/01/11 01:02:51;;;;;;;;;;;;;;;6.19;91.07;99079.78;340544;28;1303;-75
2023/01/11 01:03:01;;;;;;;;;;;;;;;6.19;91.14;99084.97;345413;28;1511;-75
2023/01/11 01:03:11;;;;;;;;;;;;;;;6.19;91.37;99074.59;347326;28;1447;-75
2023/01/11 01:03:21;;;;;;;;;;;;;;;6.20;91.62;99091.03;343679;28;1448;-75
2023/01/11 01:03:32;;;;;;;;;;;;;;;6.21;91.38;99079.75;341554;28;1536;-75
2023/01/11 01:03:42;;;;;;;;;;;;;;;6.20;91.27;99076.28;346327;28;1577;-75
2023/01/11 01:03:53;;;;;;;;;;;;;;;6.20;91.57;99086.69;344455;28;1399;-75
2023/01/11 01:04:03;;;;;;;;;;;;;;;6.20;91.62;99085.81;345378;28;1428;-75
2023/01/11 01:04:13;;;;;;;;;;;;;;;6.20;91.67;99075.44;340245;28;1922;-75
2023/01/11 01:04:23;;;;;;;;;;;;;;;6.20;91.49;99081.47;342301;28;1519;-75
2023/01/11 01:04:33;;;;;;;;;;;;;;;6.20;91.91;99075.44;342628;28;1547;-75
2023/01/11 01:04:44;;;;;;;;;;;;;;;6.21;91.91;99077.13;343457;28;1349;-75
2023/01/11 01:04:55;;;;;;;;;;;;;;;6.22;91.45;99077.09;342039;28;1396;-75
2023/01/11 01:05:05;;;;;;;;;;;;;;;6.21;91.33;99080.59;337336;29;1403;-75
2023/01/11 01:05:16;;;;;;;;;;;;;;;6.23;91.87;99080.53;337028;29;1474;-75
2023/01/11 01:05:26;;;;;;;;;;;;;;;6.20;91.80;99081.47;339670;29;1481;-75
2023/01/11 01:05:37;;;;;;;;;;;;;;;6.20;91.50;99076.28;337892;29;1720;-75
2023/01/11 01:05:47;;;;;;;;;;;;;;;6.19;91.24;99082.38;337223;29;1940;-75
2023/01/11 01:05:57;;;;;;;;;;;;;;;6.19;91.45;99084.97;334478;29;1439;-75
2023/01/11 01:06:07;;;;;;;;;;;;;;;6.19;90.93;99079.78;332803;29;1710;-75
2023/01/11 01:06:17;;;;;;;;;;;;;;;6.19;90.97;99079.78;328839;29;2148;-75
2023/01/11 01:06:28;;;;;;;;;;;;;;;6.20;91.28;99076.28;329145;30;1508;-75
2023/01/11 01:06:38;;;;;;;;;;;;;;;6.20;90.76;99081.47;330643;29;1438;-75
2023/01/11 01:06:48;;;;;;;;;;;;;;;6.21;90.87;99078.00;332331;29;1412;-75
2023/01/11 01:06:58;;;;;;;;;;;;;;;6.21;90.89;99083.19;334237;29;1447;-75
2023/01/11 01:07:10;;;;;;;;;;;;;;;6.22;91.03;99082.28;330624;29;1540;-75
2023/01/11 01:07:20;;;;;;;;;;;;;;;6.22;91.50;99079.69;331359;29;1737;-75
2023/01/11 01:07:30;;;;;;;;;;;;;;;6.21;91.14;99075.38;330861;29;2104;-75
2023/01/11 01:07:41;;;;;;;;;;;;;;;6.20;91.38;99075.44;327012;30;1525;-75
2023/01/11 01:07:51;;;;;;;;;;;;;;;6.20;91.39;99081.47;330411;29;2373;-75
2023/01/11 01:08:01;;;;;;;;;;;;;;;6.20;91.26;99080.63;329691;29;2468;-75
2023/01/11 01:08:11;;;;;;;;;;;;;;;6.20;91.25;99076.28;325441;30;1443;-75
2023/01/11 01:08:22;;;;;;;;;;;;;;;6.19;91.47;99074.59;328468;29;2564;-75
2023/01/11 01:08:32;;;;;;;;;;;;;;;6.20;91.53;99076.28;328601;29;2614;-75
2023/01/11 01:08:43;;;;;;;;;;;;;;;6.20;91.41;99071.09;328093;30;1453;-75
2023/01/11 01:08:53;;;;;;;;;;;;;;;6.20;91.39;99071.09;326705;30;1648;-75
2023/01/11 01:09:03;;;;;;;;;;;;;;;6.20;91.34;99076.28;325932;30;1262;-75
2023/01/11 01:09:13;;;;;;;;;;;;;;;6.20;91.31;99070.25;322992;30;1933;-75
2023/01/11 01:09:23;;;;;;;;;;;;;;;6.21;91.34;99079.75;323397;30;1598;-75
2023/01/11 01:09:34;;;;;;;;;;;;;;;6.20;91.76;99078.03;322075;30;2701;-75